Time;durP1;ratioP1;P1;durP2;ratioP2;P2;SDS_P1;SDS_P2;PMS_P1;PMS_P2;Temp;Humidity;BMP_temperature;BMP_pressure;BME280_temperature;BME280_humidity;BME280_pressure;Samples;Min_cycle;Max_cycle;Signal;HPM_P1;HPM_P2
2021/05/18 05:14:24;;;;;;;11.00;5.20;;;;;;;13.92;100.00;97189.42;1661110;85;21563;-55
2021/05/18 05:16:51;;;;;;;11.33;4.80;;;;;;;13.96;100.00;97185.97;1657925;85;21061;-53
2021/05/18 05:19:21;;;;;;;8.20;4.75;;;;;;;14.01;100.00;97180.66;1664454;85;21581;-55
2021/05/18 05:21:50;;;;;;;11.60;5.22;;;;;;;14.05;100.00;97191.52;1673913;86;21064;-52
2021/05/18 05:24:18;;;;;;;11.53;4.85;;;;;;;14.13;100.00;97186.19;1652860;85;21107;-48
2021/05/18 05:26:47;;;;;;;12.25;4.87;;;;;;;14.18;100.00;97191.47;1666618;85;21073;-54
2021/05/18 05:29:15;;;;;;;7.40;4.95;;;;;;;14.24;100.00;97192.50;1673386;85;21120;-50
2021/05/18 05:31:43;;;;;;;10.05;5.30;;;;;;;14.26;100.00;97189.03;1671325;86;21606;-53
2021/05/18 05:34:11;;;;;;;9.55;5.05;;;;;;;14.26;100.00;97193.02;1661964;85;21090;-50
2021/05/18 05:36:39;;;;;;;10.53;4.92;;;;;;;14.22;100.00;97197.29;1662059;85;21090;-51
2021/05/18 05:39:19;;;;;;;10.18;5.00;;;;;;;14.20;100.00;97205.23;1661856;85;21124;-53
2021/05/18 05:41:37;;;;;;;8.93;5.03;;;;;;;14.21;100.00;97203.63;1660147;86;21055;-54
2021/05/18 05:44:06;;;;;;;7.17;4.20;;;;;;;14.22;100.00;97208.39;1649451;86;21096;-54
2021/05/18 05:46:33;;;;;;;9.93;4.87;;;;;;;14.27;100.00;97207.84;1633632;88;21082;-50
2021/05/18 05:49:01;;;;;;;10.18;5.28;;;;;;;14.35;100.00;97211.81;1633823;88;21115;-52
2021/05/18 05:51:28;;;;;;;9.05;4.47;;;;;;;14.42;100.00;97207.00;1633817;86;21111;-52
2021/05/18 05:54:01;;;;;;;9.03;4.53;;;;;;;14.48;100.00;97211.24;1633801;88;21087;-50
2021/05/18 05:56:32;;;;;;;10.43;5.20;;;;;;;14.47;100.00;97210.98;1633536;88;21627;-50
2021/05/18 05:59:01;;;;;;;9.43;5.22;;;;;;;14.46;100.00;97205.40;1634023;88;21131;-50
2021/05/18 06:01:31;;;;;;;10.80;5.42;;;;;;;14.46;100.00;97196.13;1655620;86;21083;-50
2021/05/18 06:04:00;;;;;;;9.58;5.58;;;;;;;14.48;100.00;97191.89;1633766;86;21123;-53
2021/05/18 06:06:29;;;;;;;14.18;6.05;;;;;;;14.52;100.00;97196.38;1633663;88;21056;-52
2021/05/18 06:08:57;;;;;;;16.48;6.33;;;;;;;14.56;100.00;97195.28;1633708;88;21150;-52
2021/05/18 06:11:38;;;;;;;10.98;6.00;;;;;;;14.59;100.00;97191.56;1655525;86;21165;-49
2021/05/18 06:16:52;;;;;;;9.38;6.50;;;;;;;14.63;100.00;97188.37;1664298;86;21088;-49
2021/05/18 06:36:55;;;;;;;15.70;8.10;;;;;;;15.26;100.00;97174.67;1689285;85;21084;-57
2021/05/18 06:46:51;;;;;;;9.70;4.97;;;;;;;16.90;100.00;97159.77;1690074;85;21072;-54
2021/05/18 06:49:06;;;;;;;6.33;4.10;;;;;;;17.40;100.00;97161.36;1691440;84;21093;-50
2021/05/18 06:51:35;;;;;;;7.85;4.42;;;;;;;17.76;100.00;97161.54;1688373;85;21576;-56
2021/05/18 06:54:04;;;;;;;7.37;4.60;;;;;;;18.00;100.00;97160.56;1688883;85;21049;-54
2021/05/18 06:56:35;;;;;;;7.97;4.92;;;;;;;18.23;100.00;97157.44;1694084;84;21574;-55
2021/05/18 07:01:28;;;;;;;11.20;5.45;;;;;;;18.98;100.00;97160.91;1690264;84;21091;-51
2021/05/18 07:03:59;;;;;;;11.00;6.03;;;;;;;19.41;96.23;97160.39;1689510;84;21094;-51
2021/05/18 07:09:12;;;;;;;10.68;4.87;;;;;;;20.37;88.95;97167.72;1690802;85;21122;-57
2021/05/18 07:11:40;;;;;;;9.88;5.92;;;;;;;20.72;81.00;97169.13;1690721;83;21165;-63
2021/05/18 07:14:08;;;;;;;12.75;6.65;;;;;;;21.00;82.14;97168.83;1690852;84;21087;-55
2021/05/18 07:16:36;;;;;;;9.35;3.80;;;;;;;21.41;80.79;97173.13;1690637;85;21580;-52
2021/05/18 07:19:04;;;;;;;7.03;3.60;;;;;;;21.68;75.82;97155.09;1691267;85;21102;-57
2021/05/18 07:21:35;;;;;;;7.37;4.20;;;;;;;21.71;72.97;97166.50;1690721;83;21558;-50
2021/05/18 07:24:08;;;;;;;7.78;5.05;;;;;;;21.53;68.33;97169.00;1720998;83;21102;-56
2021/05/18 07:26:33;;;;;;;15.50;8.88;;;;;;;21.13;68.14;97166.52;1708236;83;21103;-58
2021/05/18 07:29:02;;;;;;;7.20;3.80;;;;;;;20.81;69.63;97165.11;1697660;83;21590;-58
2021/05/18 07:31:31;;;;;;;4.75;3.17;;;;;;;20.57;69.78;97169.03;1682526;83;21089;-52
2021/05/18 07:33:59;;;;;;;8.00;4.33;;;;;;;20.39;70.56;97169.52;1692869;85;21094;-56
2021/05/18 07:36:28;;;;;;;8.33;5.37;;;;;;;20.14;69.17;97175.61;1707880;83;21101;-54
2021/05/18 07:38:56;;;;;;;5.03;3.30;;;;;;;19.81;69.80;97177.29;1713448;83;21117;-51
2021/05/18 07:41:24;;;;;;;3.70;2.72;;;;;;;19.45;71.75;97177.40;1719771;83;21150;-50
2021/05/18 07:43:53;;;;;;;3.10;2.80;;;;;;;19.21;72.85;97176.39;1718975;83;21608;-56
2021/05/18 07:46:23;;;;;;;4.75;3.08;;;;;;;19.02;73.84;97175.21;1692218;83;21086;-53
2021/05/18 07:59:38;;;;;;;6.85;4.12;;;;;;;18.69;79.89;97159.16;1658738;85;21101;-51
2021/05/18 08:07:24;;;;;;;4.62;3.30;;;;;;;18.57;79.81;97159.10;1710115;83;21580;-55
2021/05/18 08:09:55;;;;;;;4.95;3.22;;;;;;;18.55;80.16;97157.84;1711441;82;21129;-53
2021/05/18 08:12:21;;;;;;;6.08;2.92;;;;;;;18.57;79.58;97157.77;1716900;83;21555;-55
2021/05/18 08:15:02;;;;;;;7.37;2.80;;;;;;;18.66;78.20;97157.08;1724803;83;21553;-50
2021/05/18 08:56:52;;;;;;;9.50;4.47;;;;;;;18.80;79.28;97125.80;1659549;86;21591;-52
2021/05/18 09:01:54;;;;;;;9.20;4.83;;;;;;;18.69;81.24;97129.25;1656645;86;21077;-52
2021/05/18 10:34:56;;;;;;;12.53;6.60;;;;;;;16.04;100.00;97081.95;1697467;83;21041;-50
2021/05/18 10:37:22;;;;;;;9.50;6.40;;;;;;;16.23;100.00;97076.67;1697745;83;21172;-55
2021/05/18 10:40:29;;;;;;;10.30;5.33;;;;;;;16.33;100.00;97069.86;1693701;83;21063;-56
2021/05/18 10:43:30;;;;;;;10.40;5.55;;;;;;;16.41;100.00;97068.44;1698367;83;21553;-50
2021/05/18 10:46:07;;;;;;;7.47;5.67;;;;;;;16.42;100.00;97064.70;1691885;83;21581;-46
2021/05/18 10:48:40;;;;;;;8.60;5.12;;;;;;;16.44;100.00;97059.33;1694768;83;21013;-53
2021/05/18 10:51:44;;;;;;;10.82;5.78;;;;;;;16.39;100.00;97063.39;1708053;83;21077;-47
2021/05/18 10:54:40;;;;;;;8.03;4.92;;;;;;;16.34;100.00;97057.35;1689314;83;21472;-50
2021/05/18 10:57:20;;;;;;;7.92;5.25;;;;;;;16.40;100.00;97046.89;1694213;84;21593;-50
2021/05/18 10:59:54;;;;;;;7.87;4.60;;;;;;;16.51;100.00;97040.88;1694009;85;21594;-48
2021/05/18 11:02:32;;;;;;;4.50;4.10;;;;;;;16.67;100.00;97032.38;1694030;85;21081;-51
2021/05/18 11:05:10;;;;;;;6.08;4.92;;;;;;;16.80;100.00;97046.03;1694055;85;21551;-52
2021/05/18 11:07:43;;;;;;;10.25;5.35;;;;;;;17.01;100.00;97044.61;1693852;84;21530;-52
2021/05/18 11:10:14;;;;;;;6.30;4.70;;;;;;;17.13;100.00;97044.93;1694021;83;21115;-50
2021/05/18 11:12:49;;;;;;;5.62;4.03;;;;;;;17.28;100.00;97046.54;1693750;84;21631;-51
2021/05/18 11:15:22;;;;;;;4.45;3.42;;;;;;;17.46;100.00;97049.65;1693960;85;21044;-49
2021/05/18 11:17:53;;;;;;;6.67;3.70;;;;;;;17.51;100.00;97044.23;1693809;85;21068;-52
2021/05/18 11:23:23;;;;;;;4.85;3.30;;;;;;;17.51;100.00;97044.23;1693212;84;21108;-51
2021/05/18 11:26:13;;;;;;;3.25;2.87;;;;;;;17.44;100.00;97040.39;1694318;85;21095;-49
2021/05/18 11:28:53;;;;;;;3.08;2.50;;;;;;;17.32;100.00;97046.20;1694051;85;21590;-50
2021/05/18 11:31:24;;;;;;;4.97;2.52;;;;;;;17.16;100.00;97049.68;1675044;85;21123;-52
2021/05/18 11:33:54;;;;;;;5.90;2.77;;;;;;;17.04;100.00;97050.70;1694202;85;21508;-49
2021/05/18 11:36:26;;;;;;;3.47;2.22;;;;;;;17.02;100.00;97050.19;1694140;85;21554;-53
2021/05/18 11:39:03;;;;;;;3.02;1.95;;;;;;;17.09;100.00;97059.93;1694298;83;21082;-52
2021/05/18 11:41:34;;;;;;;3.00;2.70;;;;;;;17.10;100.00;97051.40;1682715;85;21606;-49
2021/05/18 11:44:03;;;;;;;3.35;2.98;;;;;;;17.12;100.00;97048.68;1689809;84;21082;-49
2021/05/18 11:46:34;;;;;;;5.97;3.27;;;;;;;17.11;100.00;97050.31;1685877;83;21084;-49
2021/05/18 11:49:08;;;;;;;4.33;3.00;;;;;;;17.04;100.00;97048.58;1687804;85;21053;-51
2021/05/18 11:51:54;;;;;;;5.17;3.52;;;;;;;17.06;100.00;97044.53;1701031;83;21009;-49
2021/05/18 11:54:25;;;;;;;10.43;4.53;;;;;;;17.17;100.00;97039.81;1691263;85;21069;-50
2021/05/18 11:56:57;;;;;;;8.08;3.65;;;;;;;17.30;100.00;97035.58;1689226;85;21097;-48
2021/05/18 11:59:26;;;;;;;5.95;4.28;;;;;;;17.51;100.00;97036.78;1706046;83;21053;-51
2021/05/18 12:02:00;;;;;;;6.80;3.20;;;;;;;17.71;100.00;97043.02;1703405;83;21037;-51
2021/05/18 12:04:30;;;;;;;5.22;2.92;;;;;;;17.90;100.00;97040.29;1705984;83;20998;-50
2021/05/18 12:07:06;;;;;;;5.95;3.15;;;;;;;18.01;100.00;97038.98;1707374;83;21013;-50
2021/05/18 12:09:36;;;;;;;5.97;2.67;;;;;;;18.05;100.00;97029.28;1705124;83;21100;-50
2021/05/18 12:12:11;;;;;;;5.12;2.60;;;;;;;18.09;100.00;97028.69;1675517;85;21101;-54
2021/05/18 12:14:51;;;;;;;2.20;2.00;;;;;;;18.11;100.00;97031.29;1656339;86;21090;-52
2021/05/18 12:17:33;;;;;;;4.67;2.05;;;;;;;18.04;100.00;97017.59;1664928;85;21072;-49
2021/05/18 12:20:01;;;;;;;2.67;1.75;;;;;;;18.08;100.00;97023.13;1649057;86;21556;-51
2021/05/18 12:22:43;;;;;;;2.75;1.50;;;;;;;18.15;100.00;97028.83;1669004;85;21053;-52
2021/05/18 12:25:30;;;;;;;2.10;1.87;;;;;;;18.19;100.00;97023.92;1665154;85;21611;-48
2021/05/18 12:28:11;;;;;;;6.03;2.08;;;;;;;18.17;100.00;97031.42;1668866;85;21071;-51
2021/05/18 12:30:41;;;;;;;;;;;;;;;18.12;100.00;97022.74;1651769;86;21028;-51
2021/05/18 12:33:09;;;;;;;7.70;2.97;;;;;;;18.05;100.00;97027.16;1662526;86;20174;-52
2021/05/18 12:35:36;;;;;;;3.72;2.30;;;;;;;17.99;100.00;97033.69;1695000;84;21114;-53
2021/05/18 12:38:16;;;;;;;4.85;2.80;;;;;;;17.97;100.00;97027.87;1629240;87;21652;-50
2021/05/18 12:40:45;;;;;;;7.00;3.10;;;;;;;17.94;100.00;97031.13;1686829;83;22156;-54
2021/05/18 12:43:18;;;;;;;5.03;2.87;;;;;;;17.95;100.00;97024.70;1691822;85;21079;-51
2021/05/18 12:45:46;;;;;;;6.95;3.10;;;;;;;17.96;100.00;97023.09;1693940;84;21077;-54
2021/05/18 12:48:14;;;;;;;3.50;3.20;;;;;;;17.94;100.00;97023.92;1665377;85;21038;-49
2021/05/18 12:50:50;;;;;;;6.50;3.10;;;;;;;17.91;100.00;97019.75;1693803;85;21022;-52
2021/05/18 12:53:26;;;;;;;4.85;3.33;;;;;;;17.94;100.00;97017.80;1665476;85;21088;-57
2021/05/18 12:55:56;;;;;;;3.40;3.10;;;;;;;17.99;100.00;97021.14;1690322;84;21608;-52
2021/05/18 12:58:33;;;;;;;6.83;3.17;;;;;;;18.14;100.00;97014.70;1669379;84;21037;-50
2021/05/18 13:01:13;;;;;;;5.25;3.12;;;;;;;18.33;100.00;97018.53;1691734;85;21051;-50
2021/05/18 13:03:42;;;;;;;5.87;3.33;;;;;;;18.49;100.00;97024.31;1689402;85;21608;-51
2021/05/18 13:06:10;;;;;;;5.87;3.30;;;;;;;18.65;100.00;97019.41;1694071;84;21117;-52
2021/05/18 13:08:39;;;;;;;6.85;3.85;;;;;;;18.82;100.00;97013.66;1694545;85;21873;-51
2021/05/18 13:12:11;;;;;;;5.12;4.00;;;;;;;18.94;100.00;97009.63;1694979;84;22247;-55
2021/05/18 13:13:59;;;;;;;8.90;3.67;;;;;;;18.86;100.00;97021.81;1696267;84;21649;-50
2021/05/18 13:16:32;;;;;;;5.40;3.85;;;;;;;18.69;100.00;97020.37;1708475;84;21557;-55
2021/05/18 13:19:07;;;;;;;5.90;3.60;;;;;;;18.63;100.00;97014.90;1709044;84;21039;-53
2021/05/18 13:21:57;;;;;;;9.70;3.90;;;;;;;18.58;100.00;97015.83;1708968;84;21063;-50
2021/05/18 13:27:10;;;;;;;6.20;3.72;;;;;;;18.55;100.00;96999.08;1693839;84;21078;-53
2021/05/18 13:29:40;;;;;;;5.53;3.40;;;;;;;18.57;100.00;97005.67;1693282;85;21577;-58
2021/05/18 13:32:07;;;;;;;5.92;3.85;;;;;;;18.63;100.00;97014.90;1692862;84;21070;-53
2021/05/18 13:34:36;;;;;;;6.53;3.83;;;;;;;18.78;100.00;96999.33;1688608;85;21062;-59
2021/05/18 13:37:03;;;;;;;3.83;3.25;;;;;;;18.88;100.00;96995.63;1688298;83;21079;-52
2021/05/18 13:39:31;;;;;;;10.25;3.98;;;;;;;19.02;100.00;96992.85;1686104;83;21118;-58
2021/05/18 13:41:59;;;;;;;5.85;3.90;;;;;;;19.18;100.00;96998.59;1693223;85;21113;-55
2021/05/18 13:44:27;;;;;;;3.45;3.15;;;;;;;19.42;100.00;97003.54;1694069;85;21121;-55
2021/05/18 13:46:57;;;;;;;3.85;3.35;;;;;;;19.64;100.00;96999.47;1693823;85;21555;-53
2021/05/18 13:49:25;;;;;;;4.92;3.10;;;;;;;19.76;100.00;97001.53;1692975;85;21088;-48
2021/05/18 13:51:53;;;;;;;4.92;3.70;;;;;;;19.88;100.00;96999.82;1658684;85;21784;-50
2021/05/18 13:54:21;;;;;;;19.20;5.92;;;;;;;19.98;100.00;96997.40;1628771;88;21559;-48
2021/05/18 13:56:50;;;;;;;5.45;3.90;;;;;;;19.95;100.00;97003.91;1645450;87;21117;-48
2021/05/18 13:59:17;;;;;;;15.23;5.10;;;;;;;19.30;100.00;97001.45;1645641;87;21084;-52
2021/05/18 14:01:46;;;;;;;14.93;4.95;;;;;;;18.33;100.00;97020.42;1646473;86;21638;-54
2021/05/18 14:04:14;;;;;;;20.02;5.80;;;;;;;17.52;100.00;97019.70;1706601;84;21572;-50
